Time;durP1;ratioP1;P1;durP2;ratioP2;P2;SDS_P1;SDS_P2;PMS_P1;PMS_P2;Temp;Humidity;BMP_temperature;BMP_pressure;BME280_temperature;BME280_humidity;BME280_pressure;Samples;Min_cycle;Max_cycle;Signal;HPM_P1;HPM_P2
2022/01/14 00:01:59;;;;;;;3.65;2.72;;;8.90;82.50;;;;;;5091612;28;20047;-56
2022/01/14 00:04:25;;;;;;;4.47;3.25;;;9.00;82.50;;;;;;5091779;28;20036;-52
2022/01/14 00:06:50;;;;;;;4.40;2.97;;;8.90;82.50;;;;;;5073792;28;20115;-54
2022/01/14 00:09:17;;;;;;;3.05;2.58;;;8.90;82.50;;;;;;5092703;28;20033;-56
2022/01/14 00:11:48;;;;;;;5.60;2.75;;;9.00;82.50;;;;;;5092036;28;20048;-56
2022/01/14 00:16:40;;;;;;;4.65;2.83;;;9.00;82.50;;;;;;5091444;28;20488;-55
2022/01/14 00:19:05;;;;;;;3.45;2.70;;;8.90;82.50;;;;;;5093152;28;20130;-57
2022/01/14 00:21:34;;;;;;;4.03;3.05;;;9.00;82.50;;;;;;5096248;28;20394;-56
2022/01/14 00:24:09;;;;;;;3.75;2.40;;;9.00;82.50;;;;;;5095788;28;20106;-56
2022/01/14 00:32:15;;;;;;;5.05;3.42;;;8.90;82.50;;;;;;5095428;28;20119;-53
2022/01/14 00:34:41;;;;;;;3.08;2.65;;;9.00;82.50;;;;;;5077435;28;20052;-56
2022/01/14 00:37:07;;;;;;;3.95;2.40;;;9.00;82.50;;;;;;5095284;28;20059;-56
2022/01/14 00:39:32;;;;;;;3.15;2.38;;;9.00;82.50;;;;;;5095477;28;20388;-56
2022/01/14 00:41:58;;;;;;;4.85;2.75;;;9.00;82.50;;;;;;5095522;28;20052;-55
2022/01/14 00:44:24;;;;;;;3.13;2.70;;;9.00;82.50;;;;;;5095272;28;20044;-57
2022/01/14 00:46:50;;;;;;;3.88;3.15;;;9.00;82.50;;;;;;5095490;28;20101;-55
2022/01/14 00:49:18;;;;;;;5.65;2.97;;;9.00;82.50;;;;;;5095236;28;20040;-56
2022/01/14 00:51:45;;;;;;;4.05;2.80;;;9.00;82.50;;;;;;5095449;28;20048;-54
2022/01/14 00:54:12;;;;;;;2.90;2.08;;;9.00;82.50;;;;;;5095398;28;20433;-55
2022/01/14 00:59:16;;;;;;;3.72;2.50;;;9.00;82.50;;;;;;5094812;28;20090;-55
2022/01/14 01:01:48;;;;;;;3.85;3.08;;;9.00;82.50;;;;;;5077658;28;20468;-56
2022/01/14 01:04:18;;;;;;;2.60;2.40;;;9.00;82.50;;;;;;5095354;28;20082;-56
2022/01/14 01:06:46;;;;;;;4.45;2.80;;;9.00;82.50;;;;;;5095368;28;20447;-56
2022/01/14 01:09:12;;;;;;;3.67;2.50;;;9.00;82.50;;;;;;5094675;28;20522;-55
2022/01/14 01:11:50;;;;;;;3.55;2.55;;;9.00;82.50;;;;;;5094780;28;20040;-56
2022/01/14 01:14:21;;;;;;;3.47;2.45;;;9.00;82.50;;;;;;5094866;28;20452;-56
2022/01/14 01:16:48;;;;;;;3.80;2.50;;;9.00;82.50;;;;;;5094990;28;20078;-55
2022/01/14 01:19:13;;;;;;;3.72;2.90;;;9.00;82.50;;;;;;5094975;28;20119;-56
2022/01/14 01:21:39;;;;;;;2.83;2.20;;;9.00;82.50;;;;;;5094862;28;20509;-56
2022/01/14 01:24:06;;;;;;;2.60;2.40;;;9.00;82.50;;;;;;5094413;28;20487;-55
2022/01/14 01:26:36;;;;;;;4.55;2.80;;;9.00;82.50;;;;;;5076297;28;20093;-56
2022/01/14 01:29:28;;;;;;;3.72;2.90;;;8.90;82.40;;;;;;5093935;28;20109;-56
2022/01/14 01:31:49;;;;;;;3.65;2.45;;;8.90;82.40;;;;;;5069753;28;20044;-56
2022/01/14 01:34:17;;;;;;;5.30;3.28;;;9.00;82.50;;;;;;5094491;28;20051;-56
2022/01/14 01:36:45;;;;;;;4.03;2.83;;;9.00;82.50;;;;;;5094138;28;20606;-53
2022/01/14 01:39:15;;;;;;;4.05;2.78;;;9.00;82.50;;;;;;5094451;28;20039;-55
2022/01/14 01:41:44;;;;;;;4.25;2.70;;;9.00;82.50;;;;;;5094071;28;20040;-56
2022/01/14 01:44:11;;;;;;;2.95;2.65;;;9.00;82.50;;;;;;5076100;28;20444;-55
2022/01/14 01:46:40;;;;;;;3.85;2.65;;;9.00;82.50;;;;;;5094184;28;20036;-54
2022/01/14 01:49:07;;;;;;;4.38;2.80;;;9.20;82.60;;;;;;5093980;28;20054;-57
2022/01/14 01:51:33;;;;;;;3.13;2.33;;;9.00;82.50;;;;;;5093737;28;20090;-54
2022/01/14 01:53:59;;;;;;;3.47;2.60;;;9.00;82.50;;;;;;5094407;28;20032;-56
2022/01/14 01:56:25;;;;;;;3.70;2.25;;;9.00;82.50;;;;;;5094230;28;20043;-53
2022/01/14 01:58:50;;;;;;;3.20;2.47;;;9.00;82.50;;;;;;5093718;28;20429;-52
2022/01/14 02:01:17;;;;;;;4.20;2.60;;;8.90;82.40;;;;;;5094095;28;20530;-55
2022/01/14 02:03:43;;;;;;;3.08;2.30;;;9.00;82.50;;;;;;5093685;28;20044;-55
2022/01/14 02:06:08;;;;;;;4.13;2.75;;;9.00;82.40;;;;;;5093839;28;20062;-54
2022/01/14 02:08:34;;;;;;;4.25;3.08;;;9.00;82.40;;;;;;5093750;28;20041;-53
2022/01/14 02:11:00;;;;;;;3.53;2.30;;;9.00;82.50;;;;;;5093731;28;20040;-54
2022/01/14 02:13:27;;;;;;;3.83;2.45;;;9.00;82.40;;;;;;5093536;28;20036;-56
2022/01/14 02:18:34;;;;;;;3.38;2.60;;;9.00;82.40;;;;;;5093242;28;20059;-56
2022/01/14 02:23:54;;;;;;;3.55;2.30;;;9.00;82.50;;;;;;5092968;28;20048;-51
2022/01/14 02:26:21;;;;;;;3.70;3.03;;;9.00;82.50;;;;;;5093528;28;20044;-52
2022/01/14 02:28:50;;;;;;;4.47;3.03;;;9.00;82.50;;;;;;5092735;28;20048;-55
2022/01/14 02:31:16;;;;;;;3.13;2.50;;;9.00;82.40;;;;;;5093302;28;20043;-53
2022/01/14 02:33:43;;;;;;;2.83;2.47;;;9.00;82.40;;;;;;5093356;28;20095;-55
2022/01/14 02:36:09;;;;;;;3.25;2.45;;;9.00;82.40;;;;;;5092053;28;20036;-56
2022/01/14 02:38:35;;;;;;;4.68;3.08;;;9.00;82.40;;;;;;5093132;28;20075;-56
2022/01/14 02:41:01;;;;;;;4.20;2.88;;;9.00;82.40;;;;;;5092785;28;20377;-56
2022/01/14 02:43:27;;;;;;;3.92;2.50;;;9.00;82.40;;;;;;5092580;28;20040;-56
2022/01/14 02:45:55;;;;;;;3.67;2.22;;;9.10;82.50;;;;;;5073835;28;20113;-56
2022/01/14 02:48:27;;;;;;;3.20;2.40;;;9.00;82.40;;;;;;5092887;28;20040;-55
2022/01/14 02:51:01;;;;;;;3.97;2.95;;;9.00;82.40;;;;;;5093207;28;20055;-56
2022/01/14 02:53:42;;;;;;;3.13;2.58;;;9.00;82.40;;;;;;5075215;28;20119;-56
2022/01/14 02:56:10;;;;;;;3.45;2.60;;;9.00;82.40;;;;;;5092819;28;20047;-56
2022/01/14 02:58:38;;;;;;;2.72;2.47;;;9.00;82.40;;;;;;5091997;28;20066;-56
2022/01/14 03:01:11;;;;;;;3.45;2.70;;;9.00;82.40;;;;;;5092779;28;20506;-56
2022/01/14 03:03:38;;;;;;;4.32;2.65;;;9.00;82.40;;;;;;5092947;28;20507;-56
2022/01/14 03:06:06;;;;;;;3.90;3.00;;;9.00;82.40;;;;;;5092730;28;20119;-56
2022/01/14 03:08:33;;;;;;;3.20;2.50;;;9.00;82.40;;;;;;5093097;28;20480;-55
2022/01/14 03:11:06;;;;;;;3.00;2.45;;;9.00;82.50;;;;;;5093097;28;20050;-56
2022/01/14 03:13:33;;;;;;;3.50;2.63;;;9.00;82.50;;;;;;5092721;28;20048;-56
2022/01/14 03:16:00;;;;;;;3.97;2.75;;;9.00;82.50;;;;;;5092806;28;20356;-55
2022/01/14 03:18:39;;;;;;;2.92;2.17;;;9.00;82.40;;;;;;5074665;28;20048;-51
2022/01/14 03:21:13;;;;;;;3.42;2.38;;;9.00;82.40;;;;;;5092488;28;20395;-54
2022/01/14 03:23:48;;;;;;;3.80;2.90;;;9.00;82.40;;;;;;5092382;28;20066;-56
2022/01/14 03:26:16;;;;;;;2.95;2.65;;;9.00;82.40;;;;;;5092288;28;20487;-55
2022/01/14 03:28:42;;;;;;;4.88;2.97;;;9.00;82.50;;;;;;5092196;28;20093;-57
2022/01/14 03:31:09;;;;;;;4.40;2.78;;;9.00;82.40;;;;;;5092138;28;20048;-55
2022/01/14 03:33:35;;;;;;;3.08;2.45;;;9.00;82.40;;;;;;5076196;28;20392;-55
2022/01/14 03:36:03;;;;;;;2.80;2.38;;;9.00;82.50;;;;;;5074875;28;20373;-55
2022/01/14 03:38:28;;;;;;;2.75;2.00;;;9.00;82.40;;;;;;5092353;28;20505;-55
2022/01/14 03:40:54;;;;;;;2.97;2.63;;;9.00;82.50;;;;;;5092538;28;20048;-56
2022/01/14 03:43:20;;;;;;;3.65;2.88;;;9.00;82.50;;;;;;5092118;28;20044;-56
2022/01/14 03:45:48;;;;;;;2.83;2.53;;;9.00;82.50;;;;;;5092008;28;20515;-56
2022/01/14 03:48:14;;;;;;;2.42;2.10;;;9.00;82.40;;;;;;5092212;28;20115;-56
2022/01/14 03:50:41;;;;;;;3.40;2.80;;;9.00;82.40;;;;;;5092299;28;20460;-52
2022/01/14 03:53:07;;;;;;;3.28;2.55;;;9.10;82.50;;;;;;5093781;28;20044;-52
2022/01/14 03:55:33;;;;;;;3.58;3.22;;;9.00;82.50;;;;;;5078261;28;20105;-55
2022/01/14 03:57:58;;;;;;;3.75;2.92;;;9.00;82.50;;;;;;5096775;28;20109;-55
2022/01/14 04:00:24;;;;;;;4.10;2.53;;;9.00;82.40;;;;;;5096140;28;20127;-57
2022/01/14 04:02:51;;;;;;;4.18;2.60;;;9.00;82.40;;;;;;5096330;28;20032;-56
2022/01/14 04:05:17;;;;;;;3.95;2.58;;;9.00;82.40;;;;;;5096283;28;20089;-53
2022/01/14 04:07:43;;;;;;;3.72;2.67;;;9.00;82.40;;;;;;5095605;28;20040;-56
2022/01/14 04:10:11;;;;;;;3.97;2.83;;;9.00;82.40;;;;;;5096379;28;20040;-56
2022/01/14 04:12:52;;;;;;;3.63;2.35;;;9.00;82.40;;;;;;5077972;28;20040;-53
2022/01/14 04:15:36;;;;;;;3.80;2.80;;;9.00;82.40;;;;;;5095817;28;20040;-56
2022/01/14 04:18:09;;;;;;;3.40;2.90;;;9.00;82.40;;;;;;5095995;28;20092;-56
2022/01/14 04:20:37;;;;;;;3.40;2.78;;;9.00;82.40;;;;;;5095382;28;20472;-50
2022/01/14 04:23:06;;;;;;;5.63;3.67;;;9.00;82.40;;;;;;5096168;28;20048;-55
2022/01/14 04:25:35;;;;;;;4.32;2.47;;;9.00;82.40;;;;;;5096269;28;20048;-52
2022/01/14 04:28:02;;;;;;;5.07;3.22;;;9.00;82.40;;;;;;5095878;28;20052;-54
2022/01/14 04:30:28;;;;;;;4.57;2.88;;;9.00;82.40;;;;;;5095539;28;20048;-56
2022/01/14 04:32:53;;;;;;;3.97;2.83;;;9.00;82.50;;;;;;5077440;28;20454;-55
2022/01/14 04:35:19;;;;;;;5.00;2.78;;;9.00;82.40;;;;;;5095261;28;20051;-56
2022/01/14 04:37:45;;;;;;;3.90;2.33;;;9.00;82.40;;;;;;5076913;28;20059;-55
2022/01/14 04:40:13;;;;;;;4.40;3.13;;;9.00;82.40;;;;;;5095931;28;20483;-56
2022/01/14 04:42:43;;;;;;;3.85;2.72;;;9.00;82.40;;;;;;5095578;28;20044;-56
2022/01/14 04:45:11;;;;;;;4.90;3.15;;;9.00;82.40;;;;;;5095056;28;20044;-56
2022/01/14 04:47:46;;;;;;;4.18;2.80;;;9.00;82.40;;;;;;5095423;28;20123;-55
2022/01/14 04:50:14;;;;;;;4.18;3.67;;;9.00;82.40;;;;;;5075761;28;20048;-56
2022/01/14 04:52:42;;;;;;;3.17;2.40;;;9.00;82.40;;;;;;5095463;28;20032;-55
2022/01/14 04:55:09;;;;;;;4.60;3.22;;;9.00;82.50;;;;;;5094769;28;20111;-56
2022/01/14 04:57:35;;;;;;;2.67;2.47;;;9.00;82.40;;;;;;5095107;28;20482;-56
2022/01/14 05:00:04;;;;;;;3.42;2.50;;;9.00;82.40;;;;;;5095187;28;20067;-56
2022/01/14 05:02:30;;;;;;;3.80;2.70;;;9.00;82.40;;;;;;5094718;28;20479;-56
2022/01/14 05:04:57;;;;;;;3.88;2.65;;;9.10;82.50;;;;;;5076007;28;20056;-56
2022/01/14 05:07:25;;;;;;;3.85;3.05;;;9.10;82.50;;;;;;5095073;28;20086;-56
2022/01/14 05:12:30;;;;;;;3.63;2.80;;;9.10;82.50;;;;;;5095320;28;20051;-55
2022/01/14 05:14:56;;;;;;;4.18;2.53;;;9.00;82.40;;;;;;5095073;28;20070;-56
2022/01/14 05:17:22;;;;;;;5.10;3.15;;;9.00;82.40;;;;;;5076246;28;20040;-56
2022/01/14 05:19:48;;;;;;;4.25;3.10;;;9.00;82.40;;;;;;5094578;28;20097;-55
2022/01/14 05:22:13;;;;;;;3.70;2.83;;;9.00;82.40;;;;;;5094593;28;20492;-55
2022/01/14 05:24:39;;;;;;;3.22;2.85;;;9.00;82.40;;;;;;5094513;28;20036;-55
2022/01/14 05:27:05;;;;;;;4.47;2.70;;;9.00;82.40;;;;;;5094321;28;20060;-55
2022/01/14 05:29:31;;;;;;;4.28;2.90;;;9.00;82.40;;;;;;5094778;28;20044;-56
2022/01/14 05:32:03;;;;;;;3.97;3.38;;;9.00;82.40;;;;;;5094062;28;20054;-55
2022/01/14 05:34:30;;;;;;;3.00;2.70;;;9.10;82.50;;;;;;5094731;28;20052;-55
2022/01/14 05:36:55;;;;;;;2.65;2.42;;;9.00;82.40;;;;;;5094547;28;20559;-56
2022/01/14 05:39:23;;;;;;;4.32;3.00;;;9.00;82.40;;;;;;5094234;28;20119;-56
2022/01/14 05:41:49;;;;;;;3.38;2.97;;;9.00;82.40;;;;;;5094286;28;20075;-55
2022/01/14 05:44:15;;;;;;;3.80;2.58;;;9.00;82.40;;;;;;5094481;28;20040;-56
2022/01/14 05:46:40;;;;;;;3.30;2.47;;;9.00;82.40;;;;;;5094252;28;20039;-55
2022/01/14 05:51:51;;;;;;;4.63;2.92;;;9.10;82.50;;;;;;5093958;28;20040;-56
2022/01/14 05:54:19;;;;;;;2.88;2.45;;;9.10;82.50;;;;;;5075714;28;20446;-55
2022/01/14 05:56:44;;;;;;;3.95;2.70;;;9.10;82.50;;;;;;5094130;28;20040;-56
2022/01/14 05:59:11;;;;;;;2.97;2.70;;;9.00;82.40;;;;;;5076044;28;20047;-55
2022/01/14 06:01:37;;;;;;;3.92;2.90;;;9.00;82.40;;;;;;5093782;28;20044;-56
2022/01/14 06:04:04;;;;;;;3.42;3.10;;;9.00;82.40;;;;;;5094078;28;20044;-56
2022/01/14 06:06:31;;;;;;;4.15;3.03;;;9.10;82.50;;;;;;5094125;28;20387;-56
2022/01/14 06:08:57;;;;;;;3.17;2.70;;;9.00;82.40;;;;;;5093729;28;20407;-55
2022/01/14 06:11:23;;;;;;;3.05;2.70;;;9.10;82.40;;;;;;5094088;28;20047;-56
2022/01/14 06:13:49;;;;;;;2.90;2.60;;;9.10;82.50;;;;;;5093660;28;20118;-56
2022/01/14 06:16:15;;;;;;;3.83;2.70;;;9.20;82.50;;;;;;5092824;28;20436;-56
2022/01/14 06:18:41;;;;;;;3.03;2.63;;;9.10;82.50;;;;;;5075087;28;20051;-51
2022/01/14 06:21:06;;;;;;;3.58;3.05;;;9.10;82.50;;;;;;5093764;28;20040;-54
2022/01/14 06:23:32;;;;;;;3.63;2.90;;;9.10;82.50;;;;;;5093495;28;20040;-56
2022/01/14 06:25:58;;;;;;;4.38;3.15;;;9.10;82.40;;;;;;5093357;28;20036;-56
2022/01/14 06:28:24;;;;;;;3.88;3.08;;;9.10;82.40;;;;;;5093482;28;20134;-56
2022/01/14 06:30:50;;;;;;;3.58;2.65;;;9.00;82.40;;;;;;5093193;28;20052;-56
2022/01/14 06:33:16;;;;;;;3.28;2.72;;;9.00;82.40;;;;;;5093558;28;20035;-56
2022/01/14 06:35:41;;;;;;;3.33;2.97;;;9.10;82.40;;;;;;5093075;28;20040;-57
2022/01/14 06:38:07;;;;;;;4.55;2.50;;;9.10;82.40;;;;;;5093313;28;20079;-56
2022/01/14 06:40:33;;;;;;;5.00;2.65;;;9.00;82.30;;;;;;5075106;28;20083;-55
2022/01/14 06:43:00;;;;;;;2.95;2.50;;;9.10;82.50;;;;;;5093072;28;20040;-56
2022/01/14 06:45:26;;;;;;;3.28;2.60;;;9.10;82.40;;;;;;5074458;28;20112;-56
2022/01/14 06:47:52;;;;;;;4.47;3.13;;;9.10;82.50;;;;;;5092978;28;20043;-56
2022/01/14 06:50:18;;;;;;;3.72;3.08;;;9.10;82.40;;;;;;5093231;28;20464;-55
2022/01/14 06:52:44;;;;;;;3.60;2.75;;;9.10;82.40;;;;;;5074631;28;20044;-56
2022/01/14 06:55:10;;;;;;;3.20;2.60;;;9.00;82.40;;;;;;5093074;28;20089;-52
2022/01/14 06:57:36;;;;;;;3.00;2.45;;;9.00;82.40;;;;;;5092951;28;20044;-56
2022/01/14 07:00:10;;;;;;;4.00;2.65;;;9.00;82.40;;;;;;5093040;28;20047;-55
2022/01/14 07:02:36;;;;;;;3.63;2.60;;;9.10;82.40;;;;;;5092971;28;20052;-56
2022/01/14 07:05:03;;;;;;;4.13;2.50;;;9.10;82.40;;;;;;5092960;28;20052;-53
2022/01/14 07:07:29;;;;;;;2.95;2.28;;;9.10;82.40;;;;;;5074284;28;20055;-56
2022/01/14 07:09:57;;;;;;;3.72;2.72;;;9.10;82.50;;;;;;5093249;28;20048;-56
2022/01/14 07:12:33;;;;;;;3.45;2.67;;;9.10;82.40;;;;;;5093028;28;20453;-55
2022/01/14 07:14:59;;;;;;;;;;;9.10;82.40;;;;;;5092934;28;20076;-55
2022/01/14 07:17:25;;;;;;;;;;;9.00;82.30;;;;;;5093048;28;19920;-56
2022/01/14 07:19:54;;;;;;;2.92;2.33;;;9.00;82.40;;;;;;5092529;28;20419;-56
2022/01/14 07:22:20;;;;;;;3.00;2.35;;;9.00;83.10;;;;;;5092593;28;20496;-56
2022/01/14 07:24:46;;;;;;;3.38;2.60;;;9.00;82.50;;;;;;5092346;28;20173;-56
2022/01/14 07:27:12;;;;;;;3.15;2.58;;;9.00;82.40;;;;;;5092234;28;20035;-56
2022/01/14 07:29:38;;;;;;;2.55;2.35;;;9.10;82.50;;;;;;5091934;28;20059;-57
2022/01/14 07:32:04;;;;;;;3.90;2.60;;;9.10;82.50;;;;;;5092595;28;20036;-56
2022/01/14 07:34:30;;;;;;;3.83;2.55;;;9.10;82.50;;;;;;5092727;28;20050;-56
2022/01/14 07:36:56;;;;;;;3.38;2.58;;;9.00;82.50;;;;;;5092561;28;20444;-54
2022/01/14 07:39:23;;;;;;;2.72;2.10;;;9.10;82.50;;;;;;5092494;28;20046;-53
2022/01/14 07:41:53;;;;;;;2.75;2.25;;;9.10;82.50;;;;;;5092269;28;20102;-55
2022/01/14 07:44:19;;;;;;;3.00;2.22;;;9.10;82.50;;;;;;5091597;28;20076;-55
2022/01/14 07:46:45;;;;;;;2.80;2.50;;;9.00;82.40;;;;;;5091655;28;20459;-53
2022/01/14 07:49:10;;;;;;;2.60;2.40;;;9.10;82.50;;;;;;5091353;28;20039;-52
2022/01/14 07:51:36;;;;;;;2.45;2.05;;;9.00;82.40;;;;;;5091568;28;20446;-54
2022/01/14 07:54:06;;;;;;;4.03;2.75;;;9.00;82.40;;;;;;5074315;28;20036;-56
2022/01/14 07:56:45;;;;;;;2.72;2.20;;;9.10;82.50;;;;;;5073938;28;20484;-55
2022/01/14 07:59:12;;;;;;;4.85;2.60;;;9.10;82.40;;;;;;5092006;28;20041;-55
2022/01/14 08:01:38;;;;;;;3.40;2.50;;;9.10;82.50;;;;;;5092001;28;20044;-56
2022/01/14 08:04:05;;;;;;;4.07;2.10;;;9.10;82.50;;;;;;5092611;28;20055;-55
2022/01/14 08:06:33;;;;;;;2.92;2.28;;;9.10;83.10;;;;;;5092130;28;20489;-55
2022/01/14 08:08:59;;;;;;;3.13;2.40;;;9.10;82.40;;;;;;5092233;28;20044;-49
2022/01/14 08:11:25;;;;;;;3.20;2.50;;;9.10;82.40;;;;;;5089907;28;20048;-50
2022/01/14 08:13:50;;;;;;;4.28;2.40;;;9.10;82.40;;;;;;5091691;28;20051;-53
2022/01/14 08:16:16;;;;;;;2.95;2.65;;;9.10;82.40;;;;;;5092095;28;20051;-54
2022/01/14 08:18:42;;;;;;;4.68;3.05;;;9.10;82.40;;;;;;5091833;28;20040;-56
2022/01/14 08:21:09;;;;;;;3.95;2.38;;;9.10;82.50;;;;;;5091824;28;20044;-55
2022/01/14 08:23:35;;;;;;;4.55;2.30;;;9.10;82.40;;;;;;5080511;28;20040;-56
2022/01/14 08:26:01;;;;;;;4.15;2.60;;;9.10;82.40;;;;;;5082043;28;20051;-55
2022/01/14 08:28:27;;;;;;;3.85;2.33;;;9.10;82.40;;;;;;5071409;28;20096;-54
2022/01/14 08:30:53;;;;;;;2.67;2.08;;;9.10;82.40;;;;;;5088864;28;20044;-55
2022/01/14 08:33:18;;;;;;;3.20;2.25;;;9.10;82.40;;;;;;5092255;28;20047;-56
2022/01/14 08:35:45;;;;;;;3.03;2.30;;;9.10;82.40;;;;;;5071875;28;20051;-56
2022/01/14 08:38:10;;;;;;;3.72;2.42;;;9.10;82.40;;;;;;5092080;28;20067;-54
2022/01/14 08:40:36;;;;;;;2.70;2.15;;;9.10;82.40;;;;;;5075272;28;20082;-55
2022/01/14 08:43:03;;;;;;;2.80;2.50;;;9.10;82.40;;;;;;5095396;28;20040;-50
2022/01/14 08:45:28;;;;;;;2.50;2.28;;;9.10;82.40;;;;;;5096035;28;20438;-49
2022/01/14 08:47:55;;;;;;;2.70;2.40;;;9.10;82.40;;;;;;5095894;28;20048;-52
2022/01/14 08:50:26;;;;;;;3.40;2.70;;;9.10;82.40;;;;;;5076990;28;20085;-50
2022/01/14 08:52:52;;;;;;;2.45;2.25;;;9.10;82.40;;;;;;5088246;28;20044;-53
2022/01/14 08:55:19;;;;;;;3.78;2.35;;;9.10;82.40;;;;;;5095777;28;20035;-51
2022/01/14 08:57:45;;;;;;;2.20;1.83;;;9.10;82.40;;;;;;5095536;28;20119;-56
2022/01/14 09:00:12;;;;;;;3.20;2.30;;;9.10;82.40;;;;;;5095716;28;20126;-53
2022/01/14 09:02:38;;;;;;;2.20;2.00;;;9.10;82.40;;;;;;5095250;28;20404;-54
2022/01/14 09:05:04;;;;;;;2.70;2.20;;;9.20;82.50;;;;;;5095004;28;20048;-54
2022/01/14 09:07:30;;;;;;;3.08;1.90;;;9.10;82.40;;;;;;5095432;28;20381;-54
2022/01/14 09:09:56;;;;;;;2.70;2.03;;;9.10;82.40;;;;;;5095271;28;20070;-51
2022/01/14 09:12:22;;;;;;;2.67;2.20;;;9.20;82.40;;;;;;5095395;28;20040;-55
2022/01/14 09:14:48;;;;;;;3.58;2.55;;;9.10;82.40;;;;;;5095763;28;20042;-54
2022/01/14 09:17:16;;;;;;;2.78;2.15;;;9.10;82.40;;;;;;5095805;28;20048;-56
2022/01/14 09:19:42;;;;;;;2.88;2.25;;;9.10;82.40;;;;;;5095515;28;20044;-57
2022/01/14 09:22:08;;;;;;;2.72;2.00;;;9.10;82.40;;;;;;5095241;28;20051;-57
2022/01/14 09:24:35;;;;;;;2.72;2.20;;;9.10;82.40;;;;;;5076668;28;20044;-54
2022/01/14 09:27:00;;;;;;;2.55;1.98;;;9.10;82.40;;;;;;5094931;28;20118;-57
2022/01/14 09:29:26;;;;;;;2.60;1.98;;;9.10;82.40;;;;;;5094830;28;20052;-57
2022/01/14 09:31:52;;;;;;;2.28;2.08;;;9.10;82.40;;;;;;5095032;28;20123;-57
2022/01/14 09:34:17;;;;;;;3.90;2.33;;;9.10;82.40;;;;;;5095094;28;20036;-56
2022/01/14 09:36:43;;;;;;;2.53;2.05;;;9.10;82.40;;;;;;5076945;28;20044;-57
2022/01/14 09:39:09;;;;;;;2.55;2.00;;;9.10;82.40;;;;;;5094999;28;20096;-49
2022/01/14 09:41:35;;;;;;;2.90;1.95;;;9.20;82.50;;;;;;5095001;28;20044;-55
2022/01/14 09:44:02;;;;;;;3.78;2.10;;;9.10;82.40;;;;;;5094647;28;20044;-57
2022/01/14 09:46:28;;;;;;;3.22;2.28;;;9.10;82.40;;;;;;5095157;28;20051;-54
2022/01/14 09:48:54;;;;;;;3.38;1.92;;;9.10;82.40;;;;;;5094953;28;20392;-52
2022/01/14 09:51:20;;;;;;;3.78;1.80;;;9.10;82.40;;;;;;5094284;28;20068;-57
2022/01/14 09:53:46;;;;;;;3.78;1.77;;;9.10;82.40;;;;;;5094108;28;20122;-57
2022/01/14 09:56:17;;;;;;;3.75;2.10;;;9.10;82.40;;;;;;5076461;28;20125;-55
2022/01/14 09:58:47;;;;;;;2.65;2.10;;;9.10;82.40;;;;;;5093973;28;20492;-54
2022/01/14 10:01:15;;;;;;;3.00;2.13;;;9.20;82.50;;;;;;5085324;28;20047;-53
2022/01/14 10:04:12;;;;;;;2.08;1.85;;;9.10;83.10;;;;;;5093911;28;20036;-55
2022/01/14 10:06:42;;;;;;;3.20;1.85;;;9.20;82.50;;;;;;5092941;28;20044;-54
2022/01/14 10:09:16;;;;;;;2.72;2.17;;;9.10;82.40;;;;;;5075618;28;20126;-56
2022/01/14 10:11:57;;;;;;;3.15;2.15;;;9.20;82.50;;;;;;5092030;28;20040;-56
2022/01/14 10:14:23;;;;;;;3.08;2.05;;;9.10;82.50;;;;;;5073113;28;20048;-55
2022/01/14 10:16:54;;;;;;;3.90;2.13;;;9.10;82.50;;;;;;5093915;28;20042;-55
2022/01/14 10:19:24;;;;;;;6.07;2.25;;;9.10;82.40;;;;;;5093855;28;20047;-55
2022/01/14 10:21:50;;;;;;;3.05;2.15;;;9.10;83.10;;;;;;5091090;28;20042;-54
2022/01/14 10:24:16;;;;;;;2.28;1.80;;;9.10;82.40;;;;;;5075303;28;20040;-55
2022/01/14 10:27:03;;;;;;;2.42;1.38;;;9.20;82.50;;;;;;5093308;28;20036;-53
2022/01/14 10:29:37;;;;;;;2.22;1.80;;;9.20;82.50;;;;;;5089885;28;20052;-56
2022/01/14 10:32:05;;;;;;;2.83;1.95;;;9.10;82.50;;;;;;5090259;28;20396;-53
2022/01/14 10:34:32;;;;;;;3.00;2.05;;;9.10;82.50;;;;;;5089722;28;20040;-54
2022/01/14 10:37:14;;;;;;;2.85;1.73;;;9.10;82.50;;;;;;5070851;28;20344;-55
2022/01/14 10:39:52;;;;;;;2.92;1.67;;;9.20;82.50;;;;;;5090048;28;20431;-56
2022/01/14 10:42:30;;;;;;;2.20;1.60;;;9.10;82.50;;;;;;5071932;28;20040;-56
2022/01/14 10:45:24;;;;;;;3.63;2.17;;;9.20;82.50;;;;;;5082417;28;20047;-55
2022/01/14 10:48:04;;;;;;;1.92;1.60;;;9.20;82.50;;;;;;5089356;28;20044;-53
2022/01/14 10:50:30;;;;;;;2.78;1.77;;;9.10;82.50;;;;;;5069101;28;20044;-56
2022/01/14 10:52:56;;;;;;;3.78;1.95;;;9.10;82.50;;;;;;5071072;28;20054;-54
2022/01/14 10:55:38;;;;;;;4.22;1.73;;;9.20;82.60;;;;;;5088712;28;20036;-57
2022/01/14 10:58:10;;;;;;;2.90;1.95;;;9.10;82.50;;;;;;5087626;28;20123;-56
2022/01/14 11:00:42;;;;;;;3.53;1.92;;;9.10;82.50;;;;;;5089389;28;20706;-55
2022/01/14 11:03:07;;;;;;;2.90;2.08;;;9.20;82.60;;;;;;5089163;28;20111;-56
2022/01/14 11:05:34;;;;;;;4.30;1.80;;;9.20;82.50;;;;;;5089243;28;20161;-55
2022/01/14 11:08:01;;;;;;;3.88;1.90;;;9.20;82.50;;;;;;5089152;28;20137;-55
2022/01/14 11:10:33;;;;;;;3.75;2.10;;;9.10;82.50;;;;;;5089114;28;20054;-55
2022/01/14 11:13:01;;;;;;;1.65;1.38;;;9.10;82.60;;;;;;5089428;28;20048;-55
2022/01/14 11:15:28;;;;;;;3.08;1.80;;;9.10;82.50;;;;;;5070619;28;20044;-56
2022/01/14 11:17:56;;;;;;;2.65;2.00;;;9.20;82.60;;;;;;5069895;28;20052;-56
2022/01/14 11:20:28;;;;;;;3.95;1.95;;;9.20;82.60;;;;;;5089540;28;20052;-56
2022/01/14 11:25:42;;;;;;;2.90;1.60;;;9.20;82.60;;;;;;5088945;28;20048;-56
2022/01/14 11:28:09;;;;;;;2.63;1.50;;;9.20;82.60;;;;;;5088556;28;20508;-55
2022/01/14 11:30:40;;;;;;;2.42;1.80;;;9.20;82.60;;;;;;5085769;28;20406;-55
2022/01/14 11:33:07;;;;;;;2.80;1.75;;;9.20;82.60;;;;;;5088650;28;20058;-55
2022/01/14 11:35:35;;;;;;;1.80;1.70;;;9.20;82.60;;;;;;5069413;28;20384;-52
2022/01/14 11:38:01;;;;;;;2.38;1.95;;;9.20;82.60;;;;;;5087434;28;20499;-56
2022/01/14 11:40:47;;;;;;;2.20;1.50;;;9.20;82.60;;;;;;5096092;28;20369;-56
2022/01/14 11:43:32;;;;;;;;;;;9.20;82.50;;;;;;5113604;28;20434;-55
2022/01/14 11:45:58;;;;;;;4.93;2.25;;;9.20;82.50;;;;;;5112492;28;19924;-56
2022/01/14 11:48:38;;;;;;;4.63;2.22;;;9.20;82.60;;;;;;5074470;28;20044;-53
2022/01/14 11:51:07;;;;;;;2.47;1.98;;;9.20;83.00;;;;;;5092739;28;20052;-54
2022/01/14 11:53:44;;;;;;;3.75;1.90;;;9.10;82.60;;;;;;5092036;28;20040;-56
2022/01/14 11:56:44;;;;;;;2.22;1.73;;;9.20;82.60;;;;;;5074146;28;20127;-56
2022/01/14 11:59:18;;;;;;;2.88;1.65;;;9.20;82.60;;;;;;5010448;28;20562;-51
2022/01/14 12:01:55;;;;;;;2.43;2.20;;;9.20;82.60;;;;;;5010479;28;20061;-51
2022/01/14 12:04:22;;;;;;;4.10;2.05;;;9.20;82.70;;;;;;5010406;28;20498;-52
2022/01/14 12:06:50;;;;;;;3.47;1.67;;;9.20;82.60;;;;;;4992081;28;20042;-57
2022/01/14 12:09:21;;;;;;;2.58;1.80;;;9.20;82.60;;;;;;5010737;28;20049;-56
2022/01/14 12:12:20;;;;;;;2.97;1.80;;;9.20;82.60;;;;;;5010674;28;20054;-54
2022/01/14 12:14:55;;;;;;;2.33;1.70;;;9.20;82.60;;;;;;5011278;28;20058;-56
2022/01/14 12:17:41;;;;;;;3.83;1.92;;;9.20;82.70;;;;;;4997244;28;20045;-58
2022/01/14 12:20:12;;;;;;;11.60;3.20;;;9.20;82.60;;;;;;5012971;28;20045;-51
2022/01/14 12:22:38;;;;;;;13.85;3.63;;;9.20;83.60;;;;;;5013610;28;20137;-54
2022/01/14 12:25:05;;;;;;;15.38;3.90;;;9.20;83.30;;;;;;4995631;28;20486;-54
2022/01/14 12:27:43;;;;;;;13.10;3.40;;;9.20;83.30;;;;;;5013714;28;20066;-57
2022/01/14 12:30:18;;;;;;;8.73;3.08;;;9.20;83.30;;;;;;5013606;28;20058;-56
2022/01/14 12:32:47;;;;;;;6.93;3.03;;;9.20;83.30;;;;;;5013675;28;20061;-57
2022/01/14 12:35:17;;;;;;;6.93;2.63;;;9.20;83.20;;;;;;5057384;28;20109;-57
2022/01/14 12:37:48;;;;;;;6.70;2.83;;;9.20;83.20;;;;;;5075574;28;20044;-55
2022/01/14 12:40:20;;;;;;;6.07;2.20;;;9.20;83.20;;;;;;5077637;28;20044;-57
2022/01/14 12:42:49;;;;;;;5.30;2.38;;;9.20;83.10;;;;;;5095732;28;20093;-57
2022/01/14 12:46:13;;;;;;;6.88;2.60;;;9.20;83.10;;;;;;5096049;28;20383;-57
2022/01/14 12:48:50;;;;;;;5.90;2.88;;;9.20;83.10;;;;;;5048496;28;20049;-57
2022/01/14 12:51:18;;;;;;;5.47;2.38;;;9.20;83.10;;;;;;5035885;28;20061;-56
2022/01/14 12:53:53;;;;;;;5.32;2.67;;;9.20;83.00;;;;;;5036037;28;20048;-55
2022/01/14 12:56:22;;;;;;;6.20;2.67;;;9.20;83.00;;;;;;5052991;28;20037;-57
2022/01/14 12:58:58;;;;;;;4.13;2.38;;;9.20;83.00;;;;;;5035900;28;20057;-57
2022/01/14 13:01:41;;;;;;;4.78;2.83;;;9.20;82.90;;;;;;5035539;28;20049;-57
2022/01/14 13:04:10;;;;;;;6.25;2.22;;;9.20;82.90;;;;;;5053107;28;20487;-57
2022/01/14 13:06:48;;;;;;;5.85;2.38;;;9.20;83.00;;;;;;5052459;28;20128;-57
2022/01/14 13:09:19;;;;;;;6.07;2.63;;;9.10;82.90;;;;;;5052710;28;20099;-56
2022/01/14 13:12:01;;;;;;;10.88;3.42;;;9.20;82.90;;;;;;5052908;28;20120;-49
2022/01/14 13:14:30;;;;;;;18.85;5.00;;;9.20;83.40;;;;;;5052571;28;20033;-47
2022/01/14 13:17:00;;;;;;;7.43;3.97;;;9.20;84.40;;;;;;5051966;28;20144;-48
2022/01/14 13:19:31;;;;;;;17.98;3.72;;;9.20;84.00;;;;;;5052346;28;20128;-48
2022/01/14 13:21:59;;;;;;;9.52;3.35;;;9.20;84.10;;;;;;5052520;28;20160;-46
2022/01/14 13:24:27;;;;;;;9.38;3.25;;;9.20;84.20;;;;;;5067221;28;20044;-51
2022/01/14 13:27:01;;;;;;;7.00;2.75;;;9.20;84.20;;;;;;5093621;28;20783;-50
2022/01/14 13:29:38;;;;;;;6.80;3.15;;;9.20;84.20;;;;;;5094586;28;20062;-50
2022/01/14 13:32:06;;;;;;;11.30;3.22;;;9.20;84.10;;;;;;5092985;28;20036;-47